Time,TemperatureF,DewpointF,PressureIn,WindDirection,WindDirectionDegrees,WindSpeedMPH,WindSpeedGustMPH,Humidity,HourlyPrecipIn,Conditions,Clouds,dailyrainin,SolarRadiationWatts/m^2,SoftwareType,DateUTC
2013-08-26 00:01:00,78.7,69.3,30.07,SSE,153,0.0,0.0,73,0.00,FEW,,0.00,0.0,WeatherDisplay:10.37,2013-08-26 05:01:00,
2013-08-26 00:06:00,78.5,69.5,30.07,SSE,163,0.1,0.0,74,0.00,FEW,,0.00,0.0,WeatherDisplay:10.37,2013-08-26 05:06:00,
2013-08-26 00:11:00,78.5,69.5,30.07,SSE,163,0.0,2.3,74,0.00,CLR,,0.00,0.0,WeatherDisplay:10.37,2013-08-26 05:11:00,
2013-08-26 00:17:00,78.3,69.3,30.07,SSE,163,0.0,0.0,74,0.00,CLR,CLR,0.00,0.0,WeatherDisplay:10.37,2013-08-26 05:17:00,
2013-08-26 00:22:00,78.0,69.4,30.07,SSE,163,0.0,0.0,75,0.00,CLR,CLR,0.00,0.0,WeatherDisplay:10.37,2013-08-26 05:22:00,
2013-08-26 00:27:00,77.8,69.6,30.07,SSE,163,0.0,1.0,76,0.00,CLR,CLR,0.00,0.0,WeatherDisplay:10.37,2013-08-26 05:27:00,
2013-08-26 00:32:00,77.9,69.7,30.07,SSE,165,1.0,5.0,76,0.00,CLR,CLR,0.00,0.0,WeatherDisplay:10.37,2013-08-26 05:32:00,
2013-08-26 00:37:00,78.1,69.6,30.07,SSE,167,0.0,1.0,75,0.00,CLR,CLR,0.00,0.0,WeatherDisplay:10.37,2013-08-26 05:37:00,
2013-08-26 00:42:00,77.9,69.7,30.07,SSE,167,0.0,1.0,76,0.00,CLR,CLR,0.00,0.0,WeatherDisplay:10.37,2013-08-26 05:42:00,
2013-08-26 00:47:00,77.8,69.6,30.07,SSE,167,0.0,4.0,76,0.00,CLR,CLR,0.00,0.0,WeatherDisplay:10.37,2013-08-26 05:47:00,
2013-08-26 00:52:00,77.5,69.7,30.07,SSE,168,1.0,4.0,77,0.00,CLR,CLR,0.00,0.0,WeatherDisplay:10.37,2013-08-26 05:52:00,
2013-08-26 00:57:00,77.6,69.8,30.07,SSE,168,0.0,1.0,77,0.00,CLR,CLR,0.00,0.0,WeatherDisplay:10.37,2013-08-26 05:57:00,
2013-08-26 01:02:00,77.5,69.7,30.07,SSE,168,0.0,1.0,77,0.00,CLR,CLR,0.00,0.0,WeatherDisplay:10.37,2013-08-26 06:02:00,
2013-08-26 01:07:00,77.1,69.7,30.07,SSE,168,0.0,1.0,78,0.00,CLR,CLR,0.00,0.0,WeatherDisplay:10.37,2013-08-26 06:07:00,
2013-08-26 01:12:00,77.0,69.6,30.07,SSE,168,0.0,0.0,78,0.00,CLR,CLR,0.00,0.0,WeatherDisplay:10.37,2013-08-26 06:12:00,
2013-08-26 01:17:00,76.9,69.9,30.07,SSE,168,0.0,0.0,79,0.00,CLR,,0.00,0.0,WeatherDisplay:10.37,2013-08-26 06:17:00,
2013-08-26 01:22:00,76.6,69.6,30.07,SSE,168,0.0,0.0,79,0.00,CLR,CLR,0.00,0.0,WeatherDisplay:10.37,2013-08-26 06:22:00,
2013-08-26 01:27:00,76.6,69.6,30.07,SSE,168,0.0,1.0,79,0.00,CLR,CLR,0.00,0.0,WeatherDisplay:10.37,2013-08-26 06:27:00,
2013-08-26 01:32:00,76.5,69.9,30.07,South,169,1.0,2.0,80,0.00,CLR,CLR,0.00,0.0,WeatherDisplay:10.37,2013-08-26 06:32:00,
2013-08-26 01:37:00,76.5,69.9,30.07,SSE,152,1.0,3.0,80,0.00,CLR,CLR,0.00,0.0,WeatherDisplay:10.37,2013-08-26 06:37:00,
2013-08-26 01:42:00,76.6,70.0,30.07,SE,136,0.0,2.0,80,0.00,CLR,CLR,0.00,0.0,WeatherDisplay:10.37,2013-08-26 06:42:00,
2013-08-26 01:47:00,76.4,69.8,30.07,ESE,123,0.0,1.0,80,0.00,CLR,CLR,0.00,0.0,WeatherDisplay:10.37,2013-08-26 06:47:00,
2013-08-26 01:52:00,76.2,69.9,30.07,ESE,123,0.0,1.2,81,0.00,CLR,,0.00,0.0,WeatherDisplay:10.37,2013-08-26 06:52:00,
2013-08-26 01:57:00,76.0,69.7,30.07,ESE,114,0.0,4.0,81,0.00,CLR,CLR,0.00,0.0,WeatherDisplay:10.37,2013-08-26 06:57:00,
2013-08-26 02:02:00,76.1,69.9,30.07,ESE,106,0.0,3.0,81,0.00,CLR,CLR,0.00,0.0,WeatherDisplay:10.37,2013-08-26 07:02:00,
2013-08-26 02:07:00,76.2,69.9,30.07,SE,136,1.0,6.0,81,0.00,CLR,CLR,0.00,0.0,WeatherDisplay:10.37,2013-08-26 07:07:00,
2013-08-26 02:12:00,76.2,69.9,30.07,SSE,162,0.0,5.0,81,0.00,CLR,CLR,0.00,0.0,WeatherDisplay:10.37,2013-08-26 07:12:00,
2013-08-26 02:17:00,76.4,69.8,30.07,SE,143,0.0,5.0,80,0.00,CLR,CLR,0.00,0.0,WeatherDisplay:10.37,2013-08-26 07:17:00,
2013-08-26 02:22:00,76.2,69.9,30.06,SE,138,0.0,1.0,81,0.00,CLR,CLR,0.00,0.0,WeatherDisplay:10.37,2013-08-26 07:22:00,
2013-08-26 02:27:00,76.1,69.8,30.06,SE,132,1.0,3.0,81,0.00,CLR,CLR,0.00,0.0,WeatherDisplay:10.37,2013-08-26 07:27:00,
2013-08-26 02:32:00,76.1,69.8,30.06,ESE,123,0.0,2.0,81,0.00,CLR,CLR,0.00,0.0,WeatherDisplay:10.37,2013-08-26 07:32:00,
2013-08-26 02:37:00,75.8,69.6,30.06,ESE,121,0.0,0.0,81,0.00,CLR,CLR,0.00,0.0,WeatherDisplay:10.37,2013-08-26 07:37:00,
2013-08-26 02:42:00,75.8,69.6,30.07,ESE,121,0.0,3.0,81,0.00,CLR,CLR,0.00,0.0,WeatherDisplay:10.37,2013-08-26 07:42:00,
2013-08-26 02:47:00,75.5,69.6,30.06,ESE,121,0.0,0.0,82,0.00,CLR,,0.00,0.0,WeatherDisplay:10.37,2013-08-26 07:47:00,
2013-08-26 02:52:00,75.3,69.4,30.06,ESE,121,0.0,0.0,82,0.00,CLR,CLR,0.00,0.0,WeatherDisplay:10.37,2013-08-26 07:52:00,
2013-08-26 02:57:00,75.1,69.5,30.06,ESE,121,0.0,2.0,83,0.00,CLR,CLR,0.00,0.0,WeatherDisplay:10.37,2013-08-26 07:57:00,
2013-08-26 03:02:00,75.1,69.6,30.06,ESE,121,0.0,2.0,83,0.00,CLR,CLR,0.00,0.0,WeatherDisplay:10.37,2013-08-26 08:02:00,
2013-08-26 03:07:00,75.0,69.5,30.06,ESE,121,0.0,1.0,83,0.00,CLR,CLR,0.00,0.0,WeatherDisplay:10.37,2013-08-26 08:07:00,
2013-08-26 03:12:00,75.2,69.6,30.06,ESE,121,0.0,2.0,83,0.00,CLR,CLR,0.00,0.0,WeatherDisplay:10.37,2013-08-26 08:12:00,
2013-08-26 03:17:00,74.9,69.4,30.06,ESE,121,0.0,1.0,83,0.00,CLR,CLR,0.00,0.0,WeatherDisplay:10.37,2013-08-26 08:17:00,
2013-08-26 03:22:00,74.9,69.4,30.06,ESE,121,0.0,0.0,83,0.00,CLR,,0.00,0.0,WeatherDisplay:10.37,2013-08-26 08:22:00,
2013-08-26 03:27:00,74.7,69.5,30.06,ESE,105,0.0,1.0,84,0.00,CLR,CLR,0.00,0.0,WeatherDisplay:10.37,2013-08-26 08:27:00,
2013-08-26 03:32:00,74.7,69.5,30.06,East,89,0.0,1.0,84,0.00,CLR,CLR,0.00,0.0,WeatherDisplay:10.37,2013-08-26 08:32:00,
2013-08-26 03:37:00,74.5,69.4,30.07,East,84,0.0,0.0,84,0.00,CLR,CLR,0.00,0.0,WeatherDisplay:10.37,2013-08-26 08:37:00,
2013-08-26 03:42:00,74.4,69.2,30.07,East,84,0.0,0.0,84,0.00,CLR,CLR,0.00,0.0,WeatherDisplay:10.37,2013-08-26 08:42:00,
2013-08-26 03:47:00,74.2,69.1,30.06,East,84,0.0,3.0,84,0.00,CLR,CLR,0.00,0.0,WeatherDisplay:10.37,2013-08-26 08:47:00,
2013-08-26 03:52:00,74.3,69.1,30.07,East,84,0.0,2.0,84,0.00,CLR,CLR,0.00,0.0,WeatherDisplay:10.37,2013-08-26 08:52:00,
2013-08-26 03:57:00,74.2,69.1,30.06,East,84,0.0,1.0,84,0.00,CLR,CLR,0.00,0.0,WeatherDisplay:10.37,2013-08-26 08:57:00,
2013-08-26 04:02:00,74.1,69.3,30.06,East,83,0.0,1.0,85,0.00,CLR,CLR,0.00,0.0,WeatherDisplay:10.37,2013-08-26 09:02:00,
2013-08-26 04:07:00,73.8,69.0,30.06,East,83,0.0,0.0,85,0.00,CLR,CLR,0.00,0.0,WeatherDisplay:10.37,2013-08-26 09:07:00,
2013-08-26 04:12:00,73.7,68.9,30.06,East,83,0.0,0.0,85,0.00,CLR,,0.00,0.0,WeatherDisplay:10.37,2013-08-26 09:12:00,
2013-08-26 04:17:00,73.5,69.1,30.06,East,83,0.0,0.0,86,0.00,CLR,,0.00,0.0,WeatherDisplay:10.37,2013-08-26 09:17:00,
2013-08-26 04:22:00,73.3,68.9,30.06,East,83,0.0,0.0,86,0.00,CLR,,0.00,0.0,WeatherDisplay:10.37,2013-08-26 09:22:00,
2013-08-26 04:27:00,73.2,68.8,30.06,East,83,0.0,0.0,86,0.00,CLR,,0.00,0.0,WeatherDisplay:10.37,2013-08-26 09:27:00,
2013-08-26 04:33:00,73.0,68.9,30.06,East,83,0.8,2.3,87,0.00,CLR,,0.00,0.0,WeatherDisplay:10.37,2013-08-26 09:33:00,
2013-08-26 04:38:00,73.3,68.9,30.06,East,83,0.0,0.0,86,0.00,CLR,,0.00,0.0,WeatherDisplay:10.37,2013-08-26 09:38:00,
2013-08-26 04:43:00,73.3,68.9,30.06,East,83,0.0,0.0,86,0.00,CLR,,0.00,0.0,WeatherDisplay:10.37,2013-08-26 09:43:00,
2013-08-26 04:48:00,73.2,69.1,30.06,East,83,0.0,0.0,87,0.00,CLR,,0.00,0.0,WeatherDisplay:10.37,2013-08-26 09:48:00,
2013-08-26 04:54:00,73.1,68.7,30.06,East,83,0.0,0.0,86,0.00,CLR,,0.00,0.0,WeatherDisplay:10.37,2013-08-26 09:54:00,
2013-08-26 04:59:00,72.8,68.7,30.06,East,83,0.0,0.0,87,0.00,CLR,,0.00,0.0,WeatherDisplay:10.37,2013-08-26 09:59:00,
2013-08-26 05:04:00,72.6,68.8,30.06,East,83,0.0,0.0,88,0.00,CLR,,0.00,0.0,WeatherDisplay:10.37,2013-08-26 10:04:00,
2013-08-26 05:09:00,72.5,68.7,30.06,East,83,0.0,0.0,88,0.00,CLR,,0.00,0.0,WeatherDisplay:10.37,2013-08-26 10:09:00,
2013-08-26 05:15:00,72.5,68.7,30.06,East,80,0.0,0.0,88,0.00,CLR,,0.00,0.0,WeatherDisplay:10.37,2013-08-26 10:15:00,
2013-08-26 05:20:00,72.5,68.7,30.06,East,81,0.0,0.0,88,0.00,CLR,,0.00,0.0,WeatherDisplay:10.37,2013-08-26 10:20:00,
2013-08-26 05:25:00,72.4,68.6,30.06,East,81,0.0,0.0,88,0.00,CLR,,0.00,0.0,WeatherDisplay:10.37,2013-08-26 10:25:00,
2013-08-26 05:30:00,72.6,68.8,30.06,East,81,0.0,0.0,88,0.00,CLR,,0.00,0.0,WeatherDisplay:10.37,2013-08-26 10:30:00,
2013-08-26 05:36:00,72.3,68.5,30.06,East,81,0.0,0.0,88,0.00,CLR,,0.00,0.0,WeatherDisplay:10.37,2013-08-26 10:36:00,
2013-08-26 05:41:00,72.2,68.8,30.07,East,80,0.0,0.0,89,0.00,CLR,,0.00,0.0,WeatherDisplay:10.37,2013-08-26 10:41:00,
2013-08-26 05:46:00,72.1,68.7,30.07,East,80,0.0,0.0,89,0.00,CLR,,0.00,0.0,WeatherDisplay:10.37,2013-08-26 10:46:00,
2013-08-26 05:51:00,71.9,68.5,30.07,East,80,0.0,0.0,89,0.00,CLR,,0.00,0.0,WeatherDisplay:10.37,2013-08-26 10:51:00,
2013-08-26 05:57:00,71.8,68.7,30.06,East,81,0.0,1.0,90,0.00,CLR,CLR,0.00,0.0,WeatherDisplay:10.37,2013-08-26 10:57:00,
2013-08-26 06:02:00,71.7,68.3,30.06,East,81,0.0,0.0,89,0.00,CLR,CLR,0.00,0.0,WeatherDisplay:10.37,2013-08-26 11:02:00,
2013-08-26 06:07:00,71.6,68.5,30.06,East,81,0.0,0.0,90,0.00,CLR,CLR,0.00,0.0,WeatherDisplay:10.37,2013-08-26 11:07:00,
2013-08-26 06:12:00,71.6,68.5,30.07,East,81,0.0,0.0,90,0.00,CLR,CLR,0.00,0.0,WeatherDisplay:10.37,2013-08-26 11:12:00,
2013-08-26 06:17:00,71.6,68.5,30.07,East,81,0.0,0.0,90,0.00,CLR,CLR,0.00,0.0,WeatherDisplay:10.37,2013-08-26 11:17:00,
2013-08-26 06:22:00,71.7,68.6,30.07,East,81,0.0,0.0,90,0.00,CLR,CLR,0.00,0.0,WeatherDisplay:10.37,2013-08-26 11:22:00,
2013-08-26 06:27:00,71.6,68.5,30.07,East,81,0.0,0.0,90,0.00,CLR,CLR,0.00,0.0,WeatherDisplay:10.37,2013-08-26 11:27:00,
2013-08-26 06:32:00,71.8,68.7,30.07,East,81,0.0,1.0,90,0.00,CLR,CLR,0.00,0.0,WeatherDisplay:10.37,2013-08-26 11:32:00,
2013-08-26 06:37:00,71.7,68.6,30.07,East,81,0.0,0.0,90,0.00,CLR,CLR,0.00,0.0,WeatherDisplay:10.37,2013-08-26 11:37:00,
2013-08-26 06:42:00,71.6,68.5,30.07,East,81,0.0,0.0,90,0.00,CLR,,0.00,0.0,WeatherDisplay:10.37,2013-08-26 11:42:00,
2013-08-26 06:47:00,71.6,68.8,30.07,East,81,0.0,0.0,91,0.00,CLR,CLR,0.00,7.0,WeatherDisplay:10.37,2013-08-26 11:47:00,
2013-08-26 06:52:00,71.6,68.8,30.07,East,81,0.0,0.0,91,0.00,CLR,CLR,0.00,9.0,WeatherDisplay:10.37,2013-08-26 11:52:00,
2013-08-26 06:57:00,71.7,68.6,30.07,East,81,0.0,0.0,90,0.00,CLR,CLR,0.00,12.0,WeatherDisplay:10.37,2013-08-26 11:57:00,
2013-08-26 07:02:00,71.8,68.7,30.07,East,81,0.0,0.0,90,0.00,CLR,CLR,0.00,14.0,WeatherDisplay:10.37,2013-08-26 12:02:00,
2013-08-26 07:07:00,72.0,68.9,30.08,East,81,0.0,1.0,90,0.00,CLR,CLR,0.00,18.0,WeatherDisplay:10.37,2013-08-26 12:07:00,
2013-08-26 07:12:00,72.1,69.0,30.08,East,81,0.0,0.0,90,0.00,CLR,CLR,0.00,19.0,WeatherDisplay:10.37,2013-08-26 12:12:00,
2013-08-26 07:17:00,72.2,69.1,30.08,East,81,0.0,0.0,90,0.00,CLR,CLR,0.00,23.0,WeatherDisplay:10.37,2013-08-26 12:17:00,
2013-08-26 07:22:00,72.4,69.3,30.08,East,81,0.0,0.0,90,0.00,CLR,CLR,0.00,25.0,WeatherDisplay:10.37,2013-08-26 12:22:00,
2013-08-26 07:27:00,72.8,69.4,30.08,East,81,0.0,0.0,89,0.00,CLR,CLR,0.00,26.0,WeatherDisplay:10.37,2013-08-26 12:27:00,
2013-08-26 07:32:00,73.1,69.4,30.08,East,81,0.0,2.0,88,0.00,CLR,CLR,0.00,32.0,WeatherDisplay:10.37,2013-08-26 12:32:00,
2013-08-26 07:37:00,73.5,69.7,30.08,East,81,0.0,1.0,88,0.00,CLR,CLR,0.00,44.0,WeatherDisplay:10.37,2013-08-26 12:37:00,
2013-08-26 07:42:00,73.6,69.5,30.08,East,81,0.0,1.0,87,0.00,CLR,CLR,0.00,33.0,WeatherDisplay:10.37,2013-08-26 12:42:00,
2013-08-26 07:47:00,73.9,69.8,30.08,East,81,0.0,2.0,87,0.00,CLR,CLR,0.00,35.0,WeatherDisplay:10.37,2013-08-26 12:47:00,
2013-08-26 07:52:00,74.1,70.0,30.08,East,81,0.0,1.0,87,0.00,CLR,CLR,0.00,37.0,WeatherDisplay:10.37,2013-08-26 12:52:00,
2013-08-26 07:57:00,74.2,69.8,30.08,ESE,114,1.0,4.0,86,0.00,CLR,CLR,0.00,39.0,WeatherDisplay:10.37,2013-08-26 12:57:00,
2013-08-26 08:02:00,74.5,70.0,30.08,SE,129,1.0,3.0,86,0.00,CLR,CLR,0.00,40.0,WeatherDisplay:10.37,2013-08-26 13:02:00,
2013-08-26 08:07:00,74.8,70.3,30.08,SE,134,0.0,3.0,86,0.00,CLR,CLR,0.00,42.0,WeatherDisplay:10.37,2013-08-26 13:07:00,
2013-08-26 08:12:00,75.1,70.3,30.08,SE,136,0.2,2.3,85,0.00,CLR,,0.00,44.0,WeatherDisplay:10.37,2013-08-26 13:12:00,
2013-08-26 08:17:00,75.3,70.1,30.08,SSE,163,2.0,5.0,84,0.00,CLR,CLR,0.00,44.0,WeatherDisplay:10.37,2013-08-26 13:17:00,
2013-08-26 08:22:00,75.5,70.3,30.08,South,184,0.0,2.0,84,0.00,CLR,CLR,0.00,46.0,WeatherDisplay:10.37,2013-08-26 13:22:00,
2013-08-26 08:27:00,75.7,70.5,30.07,SSW,193,0.0,2.0,84,0.00,CLR,CLR,0.00,47.0,WeatherDisplay:10.37,2013-08-26 13:27:00,
2013-08-26 08:32:00,76.0,70.8,30.07,SSE,147,1.0,3.0,84,0.00,CLR,CLR,0.00,47.0,WeatherDisplay:10.37,2013-08-26 13:32:00,
2013-08-26 08:37:00,76.4,70.9,30.07,ESE,104,1.0,3.0,83,0.00,CLR,CLR,0.00,49.0,WeatherDisplay:10.37,2013-08-26 13:37:00,
2013-08-26 08:42:00,76.8,71.2,30.07,ESE,112,1.0,2.0,83,0.00,CLR,CLR,0.00,53.0,WeatherDisplay:10.37,2013-08-26 13:42:00,
2013-08-26 08:47:00,77.1,71.2,30.07,ESE,120,0.0,3.0,82,0.00,CLR,CLR,0.00,51.0,WeatherDisplay:10.37,2013-08-26 13:47:00,
2013-08-26 08:52:00,77.3,71.1,30.07,SE,125,1.0,3.0,81,0.00,CLR,CLR,0.00,53.0,WeatherDisplay:10.37,2013-08-26 13:52:00,
2013-08-26 08:57:00,77.7,71.4,30.07,SE,130,1.0,4.0,81,0.00,CLR,CLR,0.00,53.0,WeatherDisplay:10.37,2013-08-26 13:57:00,
2013-08-26 09:02:00,78.0,71.3,30.07,East,95,0.0,3.0,80,0.00,CLR,CLR,0.00,54.0,WeatherDisplay:10.37,2013-08-26 14:02:00,
2013-08-26 09:07:00,78.3,71.2,30.07,East,81,1.0,4.0,79,0.00,CLR,CLR,0.00,54.0,WeatherDisplay:10.37,2013-08-26 14:07:00,
2013-08-26 09:12:00,78.6,71.5,30.07,East,85,0.0,3.0,79,0.00,CLR,CLR,0.00,56.0,WeatherDisplay:10.37,2013-08-26 14:12:00,
2013-08-26 09:17:00,79.0,71.9,30.07,ESE,115,3.0,3.0,79,0.00,CLR,CLR,0.00,70.0,WeatherDisplay:10.37,2013-08-26 14:17:00,
2013-08-26 09:22:00,79.4,71.9,30.07,SE,125,0.0,3.0,78,0.00,CLR,CLR,0.00,60.0,WeatherDisplay:10.37,2013-08-26 14:22:00,
2013-08-26 09:27:00,79.8,72.0,30.07,ESE,107,1.0,4.0,77,0.00,CLR,CLR,0.00,60.0,WeatherDisplay:10.37,2013-08-26 14:27:00,
2013-08-26 09:32:00,80.2,72.3,30.07,NNW,345,0.0,2.0,77,0.00,CLR,CLR,0.00,62.0,WeatherDisplay:10.37,2013-08-26 14:32:00,
2013-08-26 09:37:00,80.6,72.3,30.07,NNW,335,0.0,1.0,76,0.00,CLR,CLR,0.00,62.0,WeatherDisplay:10.37,2013-08-26 14:37:00,
2013-08-26 09:42:00,81.1,72.0,30.07,SE,145,0.0,2.3,74,0.00,CLR,,0.00,67.0,WeatherDisplay:10.37,2013-08-26 14:42:00,
2013-08-26 09:47:00,81.3,72.2,30.07,SE,145,0.0,2.0,74,0.00,CLR,CLR,0.00,63.0,WeatherDisplay:10.37,2013-08-26 14:47:00,
2013-08-26 09:52:00,81.6,72.5,30.07,SSE,166,0.0,3.0,74,0.00,CLR,CLR,0.00,65.0,WeatherDisplay:10.37,2013-08-26 14:52:00,
2013-08-26 09:57:00,81.8,72.7,30.06,SE,134,0.0,4.0,74,0.00,CLR,CLR,0.00,65.0,WeatherDisplay:10.37,2013-08-26 14:57:00,
2013-08-26 10:02:00,82.5,73.0,30.06,SE,126,0.3,2.3,73,0.00,CLR,,0.00,65.0,WeatherDisplay:10.37,2013-08-26 15:02:00,
2013-08-26 10:07:00,82.9,72.5,30.06,ESE,107,1.4,3.5,71,0.00,CLR,,0.00,67.0,WeatherDisplay:10.37,2013-08-26 15:07:00,
2013-08-26 10:12:00,83.5,73.1,30.06,ESE,118,0.1,2.3,71,0.00,CLR,,0.00,69.0,WeatherDisplay:10.37,2013-08-26 15:12:00,
2013-08-26 10:18:00,84.6,73.3,30.06,SE,142,0.8,3.5,69,0.00,CLR,,0.00,72.0,WeatherDisplay:10.37,2013-08-26 15:18:00,
2013-08-26 10:23:00,84.8,72.6,30.06,ESE,107,1.8,4.6,67,0.00,CLR,,0.00,74.0,WeatherDisplay:10.37,2013-08-26 15:23:00,
2013-08-26 10:28:00,85.0,72.8,30.06,ESE,111,0.0,1.2,67,0.00,CLR,,0.00,70.0,WeatherDisplay:10.37,2013-08-26 15:28:00,
2013-08-26 10:33:00,85.7,73.5,30.06,NE,52,0.1,3.5,67,0.00,CLR,,0.00,93.0,WeatherDisplay:10.37,2013-08-26 15:33:00,
2013-08-26 10:39:00,86.0,72.9,30.06,NNW,348,1.1,2.0,65,0.00,CLR,,0.00,84.0,WeatherDisplay:10.37,2013-08-26 15:39:00,
2013-08-26 10:44:00,86.4,72.3,30.06,SSE,151,0.4,2.3,63,0.00,CLR,,0.00,74.0,WeatherDisplay:10.37,2013-08-26 15:44:00,
2013-08-26 10:49:00,86.4,72.3,30.05,SE,136,3.2,4.6,63,0.00,CLR,,0.00,146.0,WeatherDisplay:10.37,2013-08-26 15:49:00,
2013-08-26 10:54:00,87.3,73.6,30.06,SE,136,0.1,1.2,64,0.00,CLR,,0.00,86.0,WeatherDisplay:10.37,2013-08-26 15:54:00,
2013-08-26 11:00:00,87.5,71.9,30.06,SE,136,2.4,6.9,60,0.00,CLR,,0.00,97.0,WeatherDisplay:10.37,2013-08-26 16:00:00,
2013-08-26 11:05:00,87.7,72.1,30.06,ESE,108,1.1,3.5,60,0.00,CLR,,0.00,98.0,WeatherDisplay:10.37,2013-08-26 16:05:00,
2013-08-26 11:10:00,88.4,72.7,30.06,ENE,77,1.2,2.3,60,0.00,CLR,,0.00,221.0,WeatherDisplay:10.37,2013-08-26 16:10:00,
2013-08-26 11:15:00,88.6,72.9,30.06,NNW,335,0.1,2.0,60,0.00,CLR,,0.00,722.0,WeatherDisplay:10.37,2013-08-26 16:15:00,
2013-08-26 11:21:00,89.3,73.1,30.06,WNW,302,0.2,1.2,59,0.00,CLR,,0.00,737.0,WeatherDisplay:10.37,2013-08-26 16:21:00,
2013-08-26 11:26:00,89.7,74.0,30.06,SE,142,0.2,3.5,60,0.00,CLR,,0.00,749.0,WeatherDisplay:10.37,2013-08-26 16:26:00,
2013-08-26 11:31:00,89.9,73.1,30.05,SE,128,0.4,1.2,58,0.00,CLR,,0.00,759.0,WeatherDisplay:10.37,2013-08-26 16:31:00,
2013-08-26 11:36:00,89.7,72.4,30.05,NNE,20,1.0,2.3,57,0.00,CLR,,0.00,759.0,WeatherDisplay:10.37,2013-08-26 16:36:00,
2013-08-26 11:42:00,90.0,72.7,30.05,ESE,110,1.0,4.0,57,0.00,CLR,CLR,0.00,772.0,WeatherDisplay:10.37,2013-08-26 16:42:00,
2013-08-26 11:47:00,90.1,72.3,30.05,SSE,149,0.0,7.0,56,0.00,CLR,CLR,0.00,780.0,WeatherDisplay:10.37,2013-08-26 16:47:00,
2013-08-26 11:52:00,90.4,73.1,30.05,SSE,147,0.0,4.0,57,0.00,CLR,CLR,0.00,791.0,WeatherDisplay:10.37,2013-08-26 16:52:00,
2013-08-26 11:57:00,91.1,73.2,30.05,SE,133,2.0,8.0,56,0.00,CLR,CLR,0.00,795.0,WeatherDisplay:10.37,2013-08-26 16:57:00,
2013-08-26 12:02:00,90.8,73.4,30.05,NNE,17,1.0,4.0,57,0.00,CLR,CLR,0.00,809.0,WeatherDisplay:10.37,2013-08-26 17:02:00,
2013-08-26 12:07:00,90.8,71.9,30.05,ESE,121,1.6,3.5,54,0.00,CLR,,0.00,810.0,WeatherDisplay:10.37,2013-08-26 17:07:00,
2013-08-26 12:12:00,91.4,71.9,30.04,ESE,112,1.0,3.0,53,0.00,CLR,CLR,0.00,819.0,WeatherDisplay:10.37,2013-08-26 17:12:00,
2013-08-26 12:17:00,92.3,72.7,30.04,NW,308,0.0,7.0,53,0.00,CLR,CLR,0.00,819.0,WeatherDisplay:10.37,2013-08-26 17:17:00,
2013-08-26 12:22:00,92.2,72.1,30.04,North,2,1.0,6.0,52,0.00,CLR,CLR,0.00,823.0,WeatherDisplay:10.37,2013-08-26 17:22:00,
2013-08-26 12:27:00,92.3,72.7,30.04,East,91,1.0,9.0,53,0.00,CLR,CLR,0.00,830.0,WeatherDisplay:10.37,2013-08-26 17:27:00,
2013-08-26 12:32:00,92.6,72.9,30.03,South,181,0.0,3.0,53,0.00,CLR,CLR,0.00,835.0,WeatherDisplay:10.37,2013-08-26 17:32:00,
2013-08-26 12:37:00,92.9,72.1,30.03,SSW,195,1.0,4.0,51,0.00,CLR,CLR,0.00,842.0,WeatherDisplay:10.37,2013-08-26 17:37:00,
2013-08-26 12:42:00,92.9,72.1,30.03,SSW,202,1.0,4.0,51,0.00,CLR,CLR,0.00,840.0,WeatherDisplay:10.37,2013-08-26 17:42:00,
2013-08-26 12:47:00,93.0,71.6,30.03,South,173,1.0,5.0,50,0.00,CLR,CLR,0.00,847.0,WeatherDisplay:10.37,2013-08-26 17:47:00,
2013-08-26 12:52:00,93.6,73.3,30.03,ESE,122,1.0,5.0,52,0.00,CLR,CLR,0.00,849.0,WeatherDisplay:10.37,2013-08-26 17:52:00,
2013-08-26 12:57:00,93.2,72.9,30.03,ESE,116,0.0,4.0,52,0.00,CLR,CLR,0.00,851.0,WeatherDisplay:10.37,2013-08-26 17:57:00,
2013-08-26 13:02:00,93.6,72.2,30.02,ESE,123,0.2,2.3,50,0.00,CLR,,0.00,853.0,WeatherDisplay:10.37,2013-08-26 18:02:00,
2013-08-26 13:07:00,94.1,73.2,30.02,ESE,113,0.1,1.2,51,0.00,CLR,,0.00,856.0,WeatherDisplay:10.37,2013-08-26 18:07:00,
2013-08-26 13:12:00,94.0,72.5,30.02,East,82,1.3,4.6,50,0.00,CLR,,0.00,858.0,WeatherDisplay:10.37,2013-08-26 18:12:00,
2013-08-26 13:18:00,93.7,72.3,30.02,SE,146,1.9,5.0,50,0.00,CLR,,0.00,856.0,WeatherDisplay:10.37,2013-08-26 18:18:00,
2013-08-26 13:23:00,94.1,73.8,30.02,SW,217,0.0,2.3,52,0.00,CLR,,0.00,860.0,WeatherDisplay:10.37,2013-08-26 18:23:00,
2013-08-26 13:28:00,94.4,72.3,30.01,SE,142,2.3,4.6,49,0.00,CLR,,0.00,858.0,WeatherDisplay:10.37,2013-08-26 18:28:00,
2013-08-26 13:33:00,94.4,71.1,30.02,SE,125,1.3,2.3,47,0.00,CLR,,0.00,860.0,WeatherDisplay:10.37,2013-08-26 18:33:00,
2013-08-26 13:39:00,94.4,71.7,30.01,ESE,115,1.8,5.8,48,0.00,CLR,,0.00,853.0,WeatherDisplay:10.37,2013-08-26 18:39:00,
2013-08-26 13:44:00,95.1,71.7,30.01,ESE,119,0.6,3.5,47,0.00,CLR,,0.00,856.0,WeatherDisplay:10.37,2013-08-26 18:44:00,
2013-08-26 13:49:00,95.2,71.8,30.01,SE,131,0.8,4.6,47,0.00,CLR,,0.00,854.0,WeatherDisplay:10.37,2013-08-26 18:49:00,
2013-08-26 13:54:00,94.7,70.7,30.01,SE,130,0.6,3.5,46,0.00,CLR,,0.00,844.0,WeatherDisplay:10.37,2013-08-26 18:54:00,
2013-08-26 14:00:00,95.3,71.2,30.01,ESE,120,1.4,3.5,46,0.00,CLR,,0.00,847.0,WeatherDisplay:10.37,2013-08-26 19:00:00,
2013-08-26 14:05:00,95.3,70.6,30.00,SSE,157,3.6,6.0,45,0.00,CLR,,0.00,846.0,WeatherDisplay:10.37,2013-08-26 19:05:00,
2013-08-26 14:10:00,94.9,72.8,30.00,South,172,0.5,1.2,49,0.00,CLR,,0.00,840.0,WeatherDisplay:10.37,2013-08-26 19:10:00,
2013-08-26 14:15:00,95.6,70.9,30.00,ESE,121,0.4,3.5,45,0.00,CLR,,0.00,830.0,WeatherDisplay:10.37,2013-08-26 19:15:00,
2013-08-26 14:21:00,95.3,70.6,30.00,ESE,108,2.0,3.5,45,0.00,CLR,,0.00,833.0,WeatherDisplay:10.37,2013-08-26 19:21:00,
2013-08-26 14:26:00,96.4,72.2,30.00,SW,228,0.6,2.3,46,0.00,CLR,,0.00,814.0,WeatherDisplay:10.37,2013-08-26 19:26:00,
2013-08-26 14:31:00,96.9,72.0,29.99,South,186,0.2,1.2,45,0.00,CLR,,0.00,830.0,WeatherDisplay:10.37,2013-08-26 19:31:00,
2013-08-26 14:36:00,96.4,70.3,29.99,ESE,117,1.5,6.0,43,0.00,CLR,,0.00,817.0,WeatherDisplay:10.37,2013-08-26 19:36:00,
2013-08-26 14:42:00,96.2,70.1,29.99,SSE,166,2.0,10.0,43,0.00,CLR,CLR,0.00,759.0,WeatherDisplay:10.37,2013-08-26 19:42:00,
2013-08-26 14:47:00,96.3,70.9,29.99,SSE,158,1.0,8.0,44,0.00,CLR,CLR,0.00,789.0,WeatherDisplay:10.37,2013-08-26 19:47:00,
2013-08-26 14:52:00,96.3,72.8,29.99,SSW,202,0.0,5.0,47,0.00,CLR,CLR,0.00,793.0,WeatherDisplay:10.37,2013-08-26 19:52:00,
2013-08-26 14:57:00,97.1,71.5,29.99,South,172,2.0,5.0,44,0.00,CLR,CLR,0.00,497.0,WeatherDisplay:10.37,2013-08-26 19:57:00,
2013-08-26 15:02:00,96.2,71.4,29.98,SSE,149,1.0,4.0,45,0.00,CLR,CLR,0.00,770.0,WeatherDisplay:10.37,2013-08-26 20:02:00,
2013-08-26 15:07:00,96.7,71.9,29.98,SSE,153,0.4,4.6,45,0.00,CLR,,0.00,772.0,WeatherDisplay:10.37,2013-08-26 20:07:00,
2013-08-26 15:12:00,96.5,70.3,29.98,SSE,166,1.0,7.0,43,0.00,CLR,CLR,0.00,763.0,WeatherDisplay:10.37,2013-08-26 20:12:00,
2013-08-26 15:17:00,97.1,70.2,29.98,South,173,0.0,6.0,42,0.00,CLR,CLR,0.00,759.0,WeatherDisplay:10.37,2013-08-26 20:17:00,
2013-08-26 15:22:00,97.4,69.1,29.98,East,80,0.0,5.0,40,0.00,CLR,CLR,0.00,749.0,WeatherDisplay:10.37,2013-08-26 20:22:00,
2013-08-26 15:27:00,96.8,69.2,29.98,SE,127,2.0,9.0,41,0.00,CLR,CLR,0.00,740.0,WeatherDisplay:10.37,2013-08-26 20:27:00,
2013-08-26 15:32:00,96.6,70.5,29.98,ESE,119,0.0,7.0,43,0.00,CLR,CLR,0.00,737.0,WeatherDisplay:10.37,2013-08-26 20:32:00,
2013-08-26 15:37:00,96.9,70.7,29.97,ENE,71,1.0,5.0,43,0.00,CLR,CLR,0.00,728.0,WeatherDisplay:10.37,2013-08-26 20:37:00,
2013-08-26 15:42:00,97.1,68.0,29.98,SE,125,4.0,4.0,39,0.00,CLR,,0.00,726.0,WeatherDisplay:10.37,2013-08-26 20:42:00,
2013-08-26 15:47:00,97.2,70.3,29.98,ENE,68,0.6,3.5,42,0.00,CLR,,0.00,726.0,WeatherDisplay:10.37,2013-08-26 20:47:00,
2013-08-26 15:52:00,96.8,67.8,29.98,SE,134,2.5,3.5,39,0.00,CLR,,0.00,687.0,WeatherDisplay:10.37,2013-08-26 20:52:00,
2013-08-26 15:57:00,96.8,68.5,29.98,SSW,211,0.9,3.5,40,0.00,CLR,,0.00,701.0,WeatherDisplay:10.37,2013-08-26 20:57:00,
2013-08-26 16:03:00,96.6,69.7,29.98,NW,306,1.2,3.5,42,0.00,CLR,,0.00,671.0,WeatherDisplay:10.37,2013-08-26 21:03:00,
2013-08-26 16:08:00,96.9,67.8,29.98,SE,132,3.0,6.9,39,0.00,CLR,,0.00,675.0,WeatherDisplay:10.37,2013-08-26 21:08:00,
2013-08-26 16:13:00,97.1,68.8,29.98,SE,130,0.9,5.0,40,0.00,CLR,,0.00,673.0,WeatherDisplay:10.37,2013-08-26 21:13:00,
2013-08-26 16:18:00,95.8,68.3,29.97,ESE,122,0.5,2.0,41,0.00,CLR,,0.00,668.0,WeatherDisplay:10.37,2013-08-26 21:18:00,
2013-08-26 16:24:00,95.7,67.5,29.98,SE,125,0.0,2.3,40,0.00,CLR,,0.00,608.0,WeatherDisplay:10.37,2013-08-26 21:24:00,
2013-08-26 16:29:00,96.0,68.5,29.97,SE,127,1.3,3.5,41,0.00,CLR,,0.00,652.0,WeatherDisplay:10.37,2013-08-26 21:29:00,
2013-08-26 16:34:00,96.3,68.8,29.97,East,98,0.0,2.3,41,0.00,CLR,,0.00,610.0,WeatherDisplay:10.37,2013-08-26 21:34:00,
2013-08-26 16:39:00,96.5,67.5,29.97,North,360,1.1,2.3,39,0.00,CLR,,0.00,568.0,WeatherDisplay:10.37,2013-08-26 21:39:00,
2013-08-26 16:45:00,96.1,67.9,29.97,ESE,104,0.4,3.5,40,0.00,CLR,,0.00,566.0,WeatherDisplay:10.37,2013-08-26 21:45:00,
2013-08-26 16:50:00,95.7,68.2,29.97,East,101,0.4,2.3,41,0.00,CLR,,0.00,538.0,WeatherDisplay:10.37,2013-08-26 21:50:00,
2013-08-26 16:55:00,95.4,68.0,29.97,ESE,113,1.0,8.1,41,0.00,CLR,,0.00,452.0,WeatherDisplay:10.37,2013-08-26 21:55:00,
2013-08-26 17:00:00,95.4,68.0,29.97,ESE,108,1.1,1.2,41,0.00,CLR,,0.00,163.0,WeatherDisplay:10.37,2013-08-26 22:00:00,
2013-08-26 17:06:00,95.2,67.8,29.97,SE,134,0.5,1.2,41,0.00,CLR,,0.00,79.0,WeatherDisplay:10.37,2013-08-26 22:06:00,
2013-08-26 17:11:00,95.3,67.9,29.96,SE,131,1.3,5.0,41,0.00,CLR,,0.00,121.0,WeatherDisplay:10.37,2013-08-26 22:11:00,
2013-08-26 17:16:00,95.3,69.3,29.96,SE,143,0.1,2.3,43,0.00,CLR,,0.00,81.0,WeatherDisplay:10.37,2013-08-26 22:16:00,
2013-08-26 17:21:00,95.0,67.6,29.96,SE,132,1.4,3.5,41,0.00,CLR,,0.00,84.0,WeatherDisplay:10.37,2013-08-26 22:21:00,
2013-08-26 17:27:00,94.8,66.8,29.96,East,85,1.0,9.0,40,0.00,CLR,CLR,0.00,127.0,WeatherDisplay:10.37,2013-08-26 22:27:00,
2013-08-26 17:32:00,94.8,67.4,29.96,ESE,106,0.0,4.0,41,0.00,CLR,CLR,0.00,69.0,WeatherDisplay:10.37,2013-08-26 22:32:00,
2013-08-26 17:37:00,94.5,67.2,29.96,East,99,0.0,3.0,41,0.00,CLR,CLR,0.00,62.0,WeatherDisplay:10.37,2013-08-26 22:37:00,
2013-08-26 17:42:00,94.5,68.5,29.96,East,82,0.0,5.0,43,0.00,CLR,CLR,0.00,113.0,WeatherDisplay:10.37,2013-08-26 22:42:00,
2013-08-26 17:47:00,94.3,67.7,29.96,ESE,120,0.0,2.0,42,0.00,CLR,CLR,0.00,65.0,WeatherDisplay:10.37,2013-08-26 22:47:00,
2013-08-26 17:52:00,94.1,67.5,29.96,ESE,115,1.0,6.0,42,0.00,CLR,CLR,0.00,84.0,WeatherDisplay:10.37,2013-08-26 22:52:00,
2013-08-26 17:57:00,93.7,67.1,29.95,SSE,164,0.0,7.0,42,0.00,CLR,CLR,0.00,84.0,WeatherDisplay:10.37,2013-08-26 22:57:00,
2013-08-26 18:02:00,93.4,66.9,29.95,South,186,1.0,3.0,42,0.00,CLR,CLR,0.00,49.0,WeatherDisplay:10.37,2013-08-26 23:02:00,
2013-08-26 18:07:00,93.4,66.8,29.95,SSE,148,2.0,10.0,42,0.00,CLR,CLR,0.00,51.0,WeatherDisplay:10.37,2013-08-26 23:07:00,
2013-08-26 18:12:00,93.2,66.7,29.95,East,100,0.1,3.5,42,0.00,CLR,,0.00,46.0,WeatherDisplay:10.37,2013-08-26 23:12:00,
2013-08-26 18:17:00,92.7,67.6,29.95,East,80,0.0,4.0,44,0.00,CLR,CLR,0.00,44.0,WeatherDisplay:10.37,2013-08-26 23:17:00,
2013-08-26 18:22:00,92.6,66.8,29.95,NW,319,2.0,5.0,43,0.00,CLR,CLR,0.00,40.0,WeatherDisplay:10.37,2013-08-26 23:22:00,
2013-08-26 18:24:00,92.7,66.9,29.95,ESE,116,0.8,2.3,43,0.00,CLR,,0.00,40.0,WeatherDisplay:10.37,2013-08-26 23:24:00,
2013-08-26 18:27:00,92.7,66.9,29.95,ESE,116,0.8,2.3,43,0.00,CLR,,0.00,40.0,WeatherDisplay:10.37,2013-08-26 23:27:00,
2013-08-26 18:32:00,92.7,66.9,29.95,ESE,116,0.8,2.3,43,0.00,CLR,,0.00,40.0,WeatherDisplay:10.37,2013-08-26 23:32:00,
2013-08-26 18:37:00,91.5,65.8,29.95,ESE,112,0.0,3.0,43,0.00,CLR,CLR,0.00,35.0,WeatherDisplay:10.37,2013-08-26 23:37:00,
2013-08-26 18:42:00,91.5,65.8,29.95,ESE,112,0.0,5.0,43,0.00,CLR,CLR,0.00,33.0,WeatherDisplay:10.37,2013-08-26 23:42:00,
2013-08-26 18:47:00,91.3,65.7,29.94,ESE,112,0.0,1.0,43,0.00,CLR,CLR,0.00,30.0,WeatherDisplay:10.37,2013-08-26 23:47:00,
2013-08-26 18:52:00,91.1,65.5,29.95,ESE,119,2.0,6.0,43,0.00,CLR,CLR,0.00,28.0,WeatherDisplay:10.37,2013-08-26 23:52:00,
2013-08-26 18:57:00,90.5,64.9,29.95,ESE,119,0.0,1.0,43,0.00,CLR,CLR,0.00,25.0,WeatherDisplay:10.37,2013-08-26 23:57:00,
2013-08-26 19:00:00,93.4,66.9,29.95,South,180,1.0,2.0,42,0.00,,CL,0.00,60.0,WeatherDisplay:10.37,2013-08-27 00:00:00,
2013-08-26 19:02:00,90.3,64.8,29.94,ESE,112,0.0,7.0,43,0.00,CLR,CLR,0.00,23.0,WeatherDisplay:10.37,2013-08-27 00:02:00,
2013-08-26 19:07:00,89.9,64.4,29.94,ESE,119,0.0,5.0,43,0.00,CLR,CLR,0.00,21.0,WeatherDisplay:10.37,2013-08-27 00:07:00,
2013-08-26 19:12:00,89.2,63.8,29.94,SE,131,0.0,1.0,43,0.00,CLR,CLR,0.00,21.0,WeatherDisplay:10.37,2013-08-27 00:12:00,
2013-08-26 19:17:00,89.1,63.7,29.94,ESE,111,0.0,3.0,43,0.00,CLR,CLR,0.00,19.0,WeatherDisplay:10.37,2013-08-27 00:17:00,
2013-08-26 19:22:00,88.8,63.4,29.94,East,86,0.0,1.0,43,0.00,CLR,CLR,0.00,18.0,WeatherDisplay:10.37,2013-08-27 00:22:00,
2013-08-26 19:27:00,88.7,63.3,29.94,East,90,1.0,3.0,43,0.00,CLR,CLR,0.00,16.0,WeatherDisplay:10.37,2013-08-27 00:27:00,
2013-08-26 19:32:00,88.7,63.3,29.94,ESE,105,1.0,4.0,43,0.00,CLR,CLR,0.00,14.0,WeatherDisplay:10.37,2013-08-27 00:32:00,
2013-08-26 19:37:00,88.4,63.1,29.94,ESE,121,0.0,3.0,43,0.00,CLR,CLR,0.00,11.0,WeatherDisplay:10.37,2013-08-27 00:37:00,
2013-08-26 19:42:00,87.6,62.3,29.94,ESE,112,0.0,1.0,43,0.00,CLR,CLR,0.00,9.0,WeatherDisplay:10.37,2013-08-27 00:42:00,
2013-08-26 19:47:00,87.3,62.1,29.94,ESE,112,0.0,1.0,43,0.00,CLR,CLR,0.00,7.0,WeatherDisplay:10.37,2013-08-27 00:47:00,
2013-08-26 19:52:00,87.0,61.8,29.94,ESE,112,0.0,0.0,43,0.00,CLR,CLR,0.00,5.0,WeatherDisplay:10.37,2013-08-27 00:52:00,
2013-08-26 19:57:00,86.5,61.3,29.94,ESE,112,0.0,0.0,43,0.00,CLR,CLR,0.00,0.0,WeatherDisplay:10.37,2013-08-27 00:57:00,
2013-08-26 20:02:00,86.4,61.3,29.94,ESE,112,0.0,0.0,43,0.00,CLR,CLR,0.00,0.0,WeatherDisplay:10.37,2013-08-27 01:02:00,
2013-08-26 20:07:00,85.9,60.8,29.94,ESE,112,0.0,2.0,43,0.00,CLR,CLR,0.00,0.0,WeatherDisplay:10.37,2013-08-27 01:07:00,
2013-08-26 20:12:00,85.6,60.5,29.93,ESE,112,0.0,0.0,43,0.00,CLR,CLR,0.00,0.0,WeatherDisplay:10.37,2013-08-27 01:12:00,
2013-08-26 20:17:00,85.2,60.2,29.93,ESE,112,1.0,3.0,43,0.00,CLR,CLR,0.00,0.0,WeatherDisplay:10.37,2013-08-27 01:17:00,
2013-08-26 20:22:00,85.4,60.4,29.93,ESE,112,0.0,2.0,43,0.00,CLR,CLR,0.00,0.0,WeatherDisplay:10.37,2013-08-27 01:22:00,
2013-08-26 20:27:00,85.0,60.0,29.93,ESE,112,1.0,2.0,43,0.00,CLR,CLR,0.00,0.0,WeatherDisplay:10.37,2013-08-27 01:27:00,
2013-08-26 20:32:00,85.0,60.0,29.93,ESE,112,0.0,1.0,43,0.00,CLR,CLR,0.00,0.0,WeatherDisplay:10.37,2013-08-27 01:32:00,
2013-08-26 20:37:00,84.6,59.6,29.93,ESE,112,0.0,0.0,43,0.00,CLR,CLR,0.00,0.0,WeatherDisplay:10.37,2013-08-27 01:37:00,
2013-08-26 20:42:00,84.2,59.3,29.93,ESE,112,0.0,0.0,43,0.00,CLR,CLR,0.00,0.0,WeatherDisplay:10.37,2013-08-27 01:42:00,
2013-08-26 20:47:00,83.8,58.9,29.93,ESE,112,0.0,0.0,43,0.00,CLR,CLR,0.00,0.0,WeatherDisplay:10.37,2013-08-27 01:47:00,
2013-08-26 20:52:00,83.8,58.9,29.93,ESE,112,0.0,0.0,43,0.00,CLR,CLR,0.00,0.0,WeatherDisplay:10.37,2013-08-27 01:52:00,
2013-08-26 20:57:00,83.6,58.7,29.93,ESE,112,0.0,0.0,43,0.00,CLR,CLR,0.00,0.0,WeatherDisplay:10.37,2013-08-27 01:57:00,
2013-08-26 21:02:00,83.6,58.7,29.94,ESE,112,0.0,1.0,43,0.00,CLR,CLR,0.00,0.0,WeatherDisplay:10.37,2013-08-27 02:02:00,
2013-08-26 21:07:00,83.9,59.0,29.93,ESE,112,0.0,1.0,43,0.00,CLR,CLR,0.00,0.0,WeatherDisplay:10.37,2013-08-27 02:07:00,
2013-08-26 21:12:00,83.9,59.0,29.94,ESE,112,0.0,2.0,43,0.00,CLR,CLR,0.00,0.0,WeatherDisplay:10.37,2013-08-27 02:12:00,
2013-08-26 21:17:00,84.0,59.1,29.93,SE,138,0.0,4.0,43,0.00,CLR,CLR,0.00,0.0,WeatherDisplay:10.37,2013-08-27 02:17:00,
2013-08-26 21:22:00,83.6,58.7,29.93,South,174,0.0,0.0,43,0.00,CLR,CLR,0.00,0.0,WeatherDisplay:10.37,2013-08-27 02:22:00,
2013-08-26 21:27:00,83.4,58.6,29.94,South,180,0.0,2.0,43,0.00,CLR,CLR,0.00,0.0,WeatherDisplay:10.37,2013-08-27 02:27:00,
2013-08-26 21:32:00,82.8,58.0,29.94,South,180,0.0,0.0,43,0.00,CLR,CLR,0.00,0.0,WeatherDisplay:10.37,2013-08-27 02:32:00,
2013-08-26 21:37:00,82.2,57.5,29.94,South,180,0.0,0.0,43,0.00,CLR,CLR,0.00,0.0,WeatherDisplay:10.37,2013-08-27 02:37:00,
2013-08-26 21:42:00,82.0,57.3,29.94,South,180,0.0,1.0,43,0.00,CLR,CLR,0.00,0.0,WeatherDisplay:10.37,2013-08-27 02:42:00,
2013-08-26 21:47:00,81.7,57.0,29.94,South,180,0.0,0.0,43,0.00,CLR,CLR,0.00,0.0,WeatherDisplay:10.37,2013-08-27 02:47:00,
2013-08-26 21:52:00,81.4,56.8,29.94,South,180,0.0,0.0,43,0.00,CLR,CLR,0.00,0.0,WeatherDisplay:10.37,2013-08-27 02:52:00,
2013-08-26 21:57:00,81.3,56.7,29.93,South,180,0.0,1.0,43,0.00,CLR,CLR,0.00,0.0,WeatherDisplay:10.37,2013-08-27 02:57:00,
2013-08-26 22:02:00,81.5,56.8,29.93,South,180,0.0,3.0,43,0.00,CLR,CLR,0.00,0.0,WeatherDisplay:10.37,2013-08-27 03:02:00,
2013-08-26 22:07:00,81.2,56.6,29.94,South,180,0.0,1.0,43,0.00,CLR,CLR,0.00,0.0,WeatherDisplay:10.37,2013-08-27 03:07:00,
2013-08-26 22:12:00,81.1,56.5,29.93,South,180,0.0,1.0,43,0.00,CLR,CLR,0.00,0.0,WeatherDisplay:10.37,2013-08-27 03:12:00,
2013-08-26 22:17:00,80.8,56.2,29.93,South,180,0.0,1.0,43,0.00,CLR,CLR,0.00,0.0,WeatherDisplay:10.37,2013-08-27 03:17:00,
2013-08-26 22:22:00,80.9,56.3,29.93,South,180,0.0,3.0,43,0.00,CLR,CLR,0.00,0.0,WeatherDisplay:10.37,2013-08-27 03:22:00,
2013-08-26 22:27:00,80.9,56.3,29.93,South,180,0.0,0.0,43,0.00,CLR,CLR,0.00,0.0,WeatherDisplay:10.37,2013-08-27 03:27:00,
2013-08-26 22:32:00,80.6,56.0,29.93,South,180,0.0,1.0,43,0.00,CLR,CLR,0.00,0.0,WeatherDisplay:10.37,2013-08-27 03:32:00,
2013-08-26 22:37:00,80.5,55.9,29.94,South,180,0.0,1.0,43,0.00,CLR,CLR,0.00,0.0,WeatherDisplay:10.37,2013-08-27 03:37:00,
2013-08-26 22:42:00,80.2,55.7,29.94,South,180,0.0,0.0,43,0.00,CLR,CLR,0.00,0.0,WeatherDisplay:10.37,2013-08-27 03:42:00,
2013-08-26 22:47:00,79.9,55.4,29.94,South,180,0.0,0.0,43,0.00,CLR,CLR,0.00,0.0,WeatherDisplay:10.37,2013-08-27 03:47:00,
2013-08-26 22:52:00,80.0,55.5,29.95,South,180,0.0,1.0,43,0.00,CLR,CLR,0.00,0.0,WeatherDisplay:10.37,2013-08-27 03:52:00,
2013-08-26 22:57:00,80.4,55.9,29.95,South,180,1.0,2.0,43,0.00,CLR,CLR,0.00,0.0,WeatherDisplay:10.37,2013-08-27 03:57:00,
2013-08-26 23:02:00,80.3,55.8,29.95,SSE,161,0.0,3.0,43,0.00,CLR,CLR,0.00,0.0,WeatherDisplay:10.37,2013-08-27 04:02:00,
2013-08-26 23:07:00,80.1,55.6,29.94,SE,124,0.0,1.0,43,0.00,CLR,CLR,0.00,0.0,WeatherDisplay:10.37,2013-08-27 04:07:00,
2013-08-26 23:12:00,80.1,55.6,29.95,ESE,112,0.0,1.0,43,0.00,CLR,CLR,0.00,0.0,WeatherDisplay:10.37,2013-08-27 04:12:00,
2013-08-26 23:17:00,80.0,55.5,29.95,ESE,112,0.0,2.0,43,0.00,CLR,CLR,0.00,0.0,WeatherDisplay:10.37,2013-08-27 04:17:00,
2013-08-26 23:22:00,80.0,55.5,29.95,ESE,112,0.0,2.0,43,0.00,CLR,CLR,0.00,0.0,WeatherDisplay:10.37,2013-08-27 04:22:00,
2013-08-26 23:27:00,80.0,55.5,29.94,ESE,112,0.0,1.0,43,0.00,CLR,CLR,0.00,0.0,WeatherDisplay:10.37,2013-08-27 04:27:00,
2013-08-26 23:32:00,80.0,55.5,29.95,ESE,108,1.0,3.0,43,0.00,CLR,CLR,0.00,0.0,WeatherDisplay:10.37,2013-08-27 04:32:00,
2013-08-26 23:37:00,80.1,55.6,29.95,ESE,120,0.0,2.0,43,0.00,CLR,CLR,0.00,0.0,WeatherDisplay:10.37,2013-08-27 04:37:00,
2013-08-26 23:42:00,80.1,55.6,29.94,SE,135,0.0,1.0,43,0.00,CLR,CLR,0.00,0.0,WeatherDisplay:10.37,2013-08-27 04:42:00,
2013-08-26 23:47:00,80.0,55.5,29.94,SE,133,1.0,4.0,43,0.00,CLR,CLR,0.00,0.0,WeatherDisplay:10.37,2013-08-27 04:47:00,
2013-08-26 23:52:00,79.8,55.3,29.94,ESE,121,0.0,2.0,43,0.00,CLR,CLR,0.00,0.0,WeatherDisplay:10.37,2013-08-27 04:52:00,
2013-08-26 23:57:00,79.6,55.1,29.94,ESE,112,0.0,1.0,43,0.00,CLR,CLR,0.00,0.0,WeatherDisplay:10.37,2013-08-27 04:57:00,